Time;durP1;ratioP1;P1;durP2;ratioP2;P2;SDS_P1;SDS_P2;PMS_P1;PMS_P2;Temp;Humidity;BMP_temperature;BMP_pressure;BME280_temperature;BME280_humidity;BME280_pressure;Samples;Min_cycle;Max_cycle;Signal;HPM_P1;HPM_P2
2021/09/04 00:01:33;;;;;;;9.73;5.07;;;;;;;;;;4990988;28;20498;-66
2021/09/04 00:03:59;;;;;;;12.85;4.80;;;;;;;;;;4993729;28;20100;-66
2021/09/04 00:06:25;;;;;;;12.23;4.70;;;;;;;;;;4986211;28;20057;-66
2021/09/04 00:08:51;;;;;;;10.15;5.00;;;;;;;;;;4986628;28;20425;-66
2021/09/04 00:11:19;;;;;;;11.30;5.93;;;;;;;;;;4993021;28;20042;-67
2021/09/04 00:13:45;;;;;;;11.50;5.00;;;;;;;;;;4994395;28;20046;-66
2021/09/04 00:16:11;;;;;;;13.80;4.65;;;;;;;;;;4989878;28;20046;-66
2021/09/04 00:18:38;;;;;;;13.45;5.03;;;;;;;;;;4999601;28;20355;-67
2021/09/04 00:21:04;;;;;;;11.50;4.90;;;;;;;;;;4992717;28;20046;-66
2021/09/04 00:23:30;;;;;;;10.00;5.15;;;;;;;;;;4990843;28;20057;-66
2021/09/04 00:25:56;;;;;;;10.50;3.85;;;;;;;;;;4992694;28;20090;-66
2021/09/04 00:28:22;;;;;;;8.57;4.50;;;;;;;;;;4983658;28;20042;-66
2021/09/04 00:30:49;;;;;;;10.32;4.05;;;;;;;;;;4993253;28;20043;-66
2021/09/04 00:33:15;;;;;;;12.30;4.15;;;;;;;;;;4994131;28;20049;-66
2021/09/04 00:35:41;;;;;;;8.82;4.45;;;;;;;;;;4994039;28;20078;-66
2021/09/04 00:38:07;;;;;;;8.80;4.40;;;;;;;;;;4984017;28;20057;-66
2021/09/04 00:40:33;;;;;;;8.13;3.92;;;;;;;;;;4994063;28;20053;-66
2021/09/04 00:42:59;;;;;;;15.30;4.95;;;;;;;;;;4992247;28;20418;-67
2021/09/04 00:45:26;;;;;;;14.13;5.03;;;;;;;;;;4991804;28;20052;-67
2021/09/04 00:48:02;;;;;;;11.38;4.45;;;;;;;;;;4987056;28;20043;-67
2021/09/04 00:50:29;;;;;;;11.55;4.72;;;;;;;;;;5013139;28;20140;-66
2021/09/04 00:52:56;;;;;;;9.77;3.97;;;;;;;;;;5012883;28;20066;-66
2021/09/04 00:55:23;;;;;;;10.32;4.75;;;;;;;;;;5013173;28;20104;-67
2021/09/04 00:57:50;;;;;;;10.23;3.90;;;;;;;;;;4991392;28;20062;-66
2021/09/04 01:00:16;;;;;;;8.38;3.85;;;;;;;;;;4992000;28;20050;-66
2021/09/04 01:02:42;;;;;;;11.05;4.32;;;;;;;;;;4995247;28;20053;-66
2021/09/04 01:05:09;;;;;;;11.38;3.92;;;;;;;;;;5012444;28;20048;-67
2021/09/04 01:07:35;;;;;;;6.72;3.50;;;;;;;;;;5012887;28;20052;-66
2021/09/04 01:10:02;;;;;;;11.15;4.03;;;;;;;;;;5003759;28;20437;-66
2021/09/04 01:12:28;;;;;;;10.23;3.35;;;;;;;;;;4993332;28;20050;-66
2021/09/04 01:14:54;;;;;;;7.68;3.78;;;;;;;;;;5012834;28;20129;-67
2021/09/04 01:17:21;;;;;;;7.18;4.10;;;;;;;;;;5012999;28;20073;-67
2021/09/04 01:19:47;;;;;;;10.15;3.78;;;;;;;;;;5004166;28;20042;-66
2021/09/04 01:22:13;;;;;;;11.95;4.13;;;;;;;;;;5012704;28;20509;-66
2021/09/04 01:24:39;;;;;;;6.82;3.00;;;;;;;;;;5012642;28;20438;-66
2021/09/04 01:27:06;;;;;;;8.02;3.40;;;;;;;;;;4994137;28;20135;-67
2021/09/04 01:29:32;;;;;;;9.02;3.30;;;;;;;;;;4988305;28;20042;-66
2021/09/04 01:31:58;;;;;;;6.38;3.00;;;;;;;;;;5012720;28;20041;-66
2021/09/04 01:34:24;;;;;;;6.20;3.08;;;;;;;;;;4992840;28;20373;-67
2021/09/04 01:36:50;;;;;;;5.10;2.90;;;;;;;;;;5012532;28;20042;-66
2021/09/04 01:39:16;;;;;;;8.15;2.80;;;;;;;;;;5011515;28;20042;-67
2021/09/04 01:41:43;;;;;;;7.45;2.90;;;;;;;;;;4993735;28;20080;-66
2021/09/04 01:44:09;;;;;;;10.10;2.90;;;;;;;;;;4994482;28;20060;-66
2021/09/04 01:46:35;;;;;;;8.93;2.90;;;;;;;;;;5012305;28;20058;-66
2021/09/04 01:49:02;;;;;;;6.25;3.25;;;;;;;;;;5011159;28;20116;-67
2021/09/04 01:51:29;;;;;;;7.20;3.58;;;;;;;;;;4990984;28;20162;-66
2021/09/04 01:53:55;;;;;;;6.15;3.00;;;;;;;;;;4988714;28;20431;-66
2021/09/04 01:56:21;;;;;;;7.13;2.55;;;;;;;;;;4993797;28;20477;-66
2021/09/04 01:58:48;;;;;;;9.25;3.50;;;;;;;;;;4994543;28;20411;-66
2021/09/04 02:01:14;;;;;;;6.78;3.10;;;;;;;;;;4993716;28;20439;-66
2021/09/04 02:03:40;;;;;;;8.70;3.33;;;;;;;;;;4993916;28;20494;-66
2021/09/04 02:06:06;;;;;;;9.45;3.50;;;;;;;;;;4998813;28;20417;-66
2021/09/04 02:08:33;;;;;;;8.80;3.13;;;;;;;;;;4993478;28;20054;-66
2021/09/04 02:10:59;;;;;;;7.75;3.00;;;;;;;;;;4993552;28;20045;-67
2021/09/04 02:13:25;;;;;;;7.65;3.20;;;;;;;;;;4994351;28;20393;-67
2021/09/04 02:15:52;;;;;;;8.60;3.15;;;;;;;;;;5011098;28;20044;-67
2021/09/04 02:18:20;;;;;;;12.93;3.72;;;;;;;;;;4994036;28;20069;-66
2021/09/04 02:20:46;;;;;;;7.82;3.78;;;;;;;;;;5011180;28;20046;-66
2021/09/04 02:23:12;;;;;;;8.15;2.90;;;;;;;;;;5010640;28;20118;-67
2021/09/04 02:25:38;;;;;;;11.93;4.05;;;;;;;;;;4990565;28;20081;-66
2021/09/04 02:28:04;;;;;;;8.90;3.33;;;;;;;;;;5006587;28;20042;-66
2021/09/04 02:30:31;;;;;;;9.32;3.38;;;;;;;;;;5011076;28;20040;-67
2021/09/04 02:32:57;;;;;;;6.18;3.13;;;;;;;;;;4993395;28;20049;-66
2021/09/04 02:35:24;;;;;;;8.10;3.67;;;;;;;;;;5011073;28;20430;-66
2021/09/04 02:37:50;;;;;;;9.98;3.83;;;;;;;;;;5010818;28;20064;-66
2021/09/04 02:40:16;;;;;;;10.10;3.97;;;;;;;;;;5011064;28;20389;-66
2021/09/04 02:42:42;;;;;;;7.45;3.42;;;;;;;;;;5010708;28;20038;-66
2021/09/04 02:45:09;;;;;;;9.90;3.20;;;;;;;;;;4993157;28;20441;-66
2021/09/04 02:47:35;;;;;;;12.30;3.75;;;;;;;;;;5011394;28;20060;-66
2021/09/04 02:50:02;;;;;;;12.90;3.70;;;;;;;;;;5010721;28;20058;-66
2021/09/04 02:52:29;;;;;;;7.65;2.97;;;;;;;;;;5010113;28;20041;-66
2021/09/04 02:54:55;;;;;;;7.50;2.90;;;;;;;;;;5011158;28;20477;-66
2021/09/04 02:57:21;;;;;;;9.68;2.67;;;;;;;;;;5010994;28;20073;-66
2021/09/04 02:59:47;;;;;;;8.40;3.67;;;;;;;;;;4992790;28;20053;-66
2021/09/04 03:02:14;;;;;;;8.23;2.58;;;;;;;;;;4992646;28;20136;-66
2021/09/04 03:04:41;;;;;;;8.27;2.78;;;;;;;;;;5010289;28;20448;-66
2021/09/04 03:07:07;;;;;;;8.57;2.85;;;;;;;;;;4993548;28;20042;-67
2021/09/04 03:09:33;;;;;;;5.90;2.50;;;;;;;;;;5010689;28;20045;-66
2021/09/04 03:12:00;;;;;;;8.48;2.80;;;;;;;;;;4992518;28;20042;-66
2021/09/04 03:14:27;;;;;;;9.93;3.05;;;;;;;;;;4992758;28;20042;-66
2021/09/04 03:16:53;;;;;;;6.05;3.13;;;;;;;;;;5010836;28;20091;-66
2021/09/04 03:19:19;;;;;;;7.78;2.90;;;;;;;;;;5010000;28;20049;-66
2021/09/04 03:21:45;;;;;;;13.55;3.35;;;;;;;;;;4993152;28;20046;-66
2021/09/04 03:24:11;;;;;;;6.18;3.05;;;;;;;;;;4991199;28;20490;-66
2021/09/04 03:26:38;;;;;;;6.22;2.60;;;;;;;;;;4992803;28;20041;-66
2021/09/04 03:29:04;;;;;;;8.23;2.70;;;;;;;;;;4993283;28;20129;-66
2021/09/04 03:31:30;;;;;;;4.43;2.08;;;;;;;;;;4992982;28;20129;-67
2021/09/04 03:33:56;;;;;;;9.95;3.35;;;;;;;;;;4992309;28;20054;-66
2021/09/04 03:36:22;;;;;;;8.32;2.60;;;;;;;;;;5011997;28;20512;-66
2021/09/04 03:38:48;;;;;;;9.30;2.80;;;;;;;;;;4996862;28;20069;-67
2021/09/04 03:41:15;;;;;;;8.65;3.03;;;;;;;;;;4980182;28;20073;-66
2021/09/04 03:43:41;;;;;;;9.15;2.85;;;;;;;;;;4996632;28;20050;-66
2021/09/04 03:46:07;;;;;;;9.63;2.97;;;;;;;;;;4996562;28;20517;-66
2021/09/04 03:48:33;;;;;;;11.45;2.83;;;;;;;;;;4995814;28;20571;-67
2021/09/04 03:51:00;;;;;;;7.78;3.00;;;;;;;;;;5014445;28;20126;-66
2021/09/04 03:53:26;;;;;;;8.55;3.08;;;;;;;;;;5014268;28;20049;-66
2021/09/04 03:55:52;;;;;;;5.93;2.50;;;;;;;;;;4999560;28;20567;-66
2021/09/04 03:58:18;;;;;;;10.50;2.88;;;;;;;;;;4996762;28;20131;-66
2021/09/04 04:00:44;;;;;;;10.80;3.20;;;;;;;;;;5013921;28;20064;-66
2021/09/04 04:03:11;;;;;;;9.85;2.95;;;;;;;;;;5013821;28;20085;-66
2021/09/04 04:05:37;;;;;;;9.80;2.88;;;;;;;;;;5013577;28;20072;-66
2021/09/04 04:08:03;;;;;;;8.15;2.75;;;;;;;;;;5012276;28;20045;-66
2021/09/04 04:10:29;;;;;;;10.48;2.90;;;;;;;;;;4996772;28;20065;-66
2021/09/04 04:12:55;;;;;;;14.57;3.08;;;;;;;;;;5013973;28;20038;-66
2021/09/04 04:15:22;;;;;;;10.73;3.85;;;;;;;;;;4995166;28;20112;-66
2021/09/04 04:17:48;;;;;;;9.70;3.10;;;;;;;;;;4996264;28;20088;-66
2021/09/04 04:20:14;;;;;;;6.60;2.70;;;;;;;;;;5013640;28;20057;-66
2021/09/04 04:22:40;;;;;;;9.85;2.80;;;;;;;;;;4995788;28;20042;-66
2021/09/04 04:25:06;;;;;;;8.10;3.30;;;;;;;;;;5013602;28;20070;-66
2021/09/04 04:27:33;;;;;;;10.63;3.33;;;;;;;;;;4995747;28;20050;-66
2021/09/04 04:29:59;;;;;;;8.02;2.85;;;;;;;;;;4995637;28;20093;-66
2021/09/04 04:32:25;;;;;;;7.07;3.40;;;;;;;;;;5013621;28;20096;-66
2021/09/04 04:34:51;;;;;;;8.00;3.45;;;;;;;;;;5013213;28;20060;-66
2021/09/04 04:37:17;;;;;;;7.43;3.47;;;;;;;;;;5012599;28;20141;-66
2021/09/04 04:39:44;;;;;;;6.93;2.78;;;;;;;;;;5013164;28;20505;-66
2021/09/04 04:42:10;;;;;;;7.82;3.13;;;;;;;;;;5013266;28;20129;-66
2021/09/04 04:44:36;;;;;;;9.68;2.92;;;;;;;;;;4995229;28;20045;-66
2021/09/04 04:47:02;;;;;;;9.77;3.80;;;;;;;;;;5012597;28;20425;-67
2021/09/04 04:49:28;;;;;;;14.60;3.53;;;;;;;;;;4991979;28;20467;-66
2021/09/04 04:51:54;;;;;;;7.95;3.20;;;;;;;;;;4993150;28;20100;-66
2021/09/04 04:54:21;;;;;;;8.27;3.13;;;;;;;;;;4993957;28;20061;-66
2021/09/04 04:56:47;;;;;;;5.28;3.13;;;;;;;;;;4993122;28;20525;-66
2021/09/04 04:59:13;;;;;;;7.47;3.35;;;;;;;;;;4992698;28;20057;-66
2021/09/04 05:01:39;;;;;;;8.63;3.25;;;;;;;;;;4992165;28;20450;-66
2021/09/04 05:04:05;;;;;;;12.68;3.05;;;;;;;;;;4993151;28;20048;-66
2021/09/04 05:06:32;;;;;;;12.20;3.08;;;;;;;;;;4991490;28;20173;-66
2021/09/04 05:08:58;;;;;;;7.32;3.03;;;;;;;;;;4991881;28;20050;-66
2021/09/04 05:11:24;;;;;;;7.75;3.42;;;;;;;;;;4992879;28;20415;-66
2021/09/04 05:13:50;;;;;;;6.85;3.03;;;;;;;;;;4988776;28;20042;-66
2021/09/04 05:16:16;;;;;;;9.73;3.08;;;;;;;;;;4991069;28;20109;-66
2021/09/04 05:18:43;;;;;;;10.07;2.80;;;;;;;;;;4991920;28;20050;-66
2021/09/04 05:21:09;;;;;;;7.18;3.33;;;;;;;;;;4993293;28;20073;-66
2021/09/04 05:23:35;;;;;;;6.55;2.97;;;;;;;;;;4993114;28;20113;-66
2021/09/04 05:26:01;;;;;;;9.32;3.13;;;;;;;;;;4992493;28;20046;-66
2021/09/04 05:28:27;;;;;;;8.73;2.85;;;;;;;;;;4992855;28;20030;-66
2021/09/04 05:30:53;;;;;;;7.00;2.53;;;;;;;;;;4992808;28;20056;-66
2021/09/04 05:33:20;;;;;;;7.20;2.78;;;;;;;;;;4992302;28;20169;-66
2021/09/04 05:35:46;;;;;;;7.45;2.70;;;;;;;;;;4991863;28;20046;-66
2021/09/04 05:38:13;;;;;;;9.70;2.75;;;;;;;;;;4992192;28;20361;-66
2021/09/04 05:40:39;;;;;;;10.05;2.90;;;;;;;;;;4992537;28;20452;-67
2021/09/04 05:43:05;;;;;;;9.85;3.00;;;;;;;;;;4992640;28;20050;-66
2021/09/04 05:45:31;;;;;;;8.68;2.70;;;;;;;;;;4990881;28;20082;-66
2021/09/04 05:47:57;;;;;;;8.88;2.63;;;;;;;;;;4992095;28;20394;-66
2021/09/04 05:50:24;;;;;;;6.95;3.00;;;;;;;;;;5010855;28;20062;-66
2021/09/04 05:52:50;;;;;;;8.60;3.00;;;;;;;;;;5012094;28;20124;-66
2021/09/04 05:55:16;;;;;;;8.68;3.03;;;;;;;;;;4993879;28;20054;-66
2021/09/04 05:57:42;;;;;;;6.90;3.08;;;;;;;;;;4981080;28;20061;-67
2021/09/04 06:00:09;;;;;;;8.20;3.30;;;;;;;;;;5010721;28;20096;-66
2021/09/04 06:02:35;;;;;;;10.38;3.60;;;;;;;;;;5011595;28;20463;-66
2021/09/04 06:05:01;;;;;;;8.98;3.70;;;;;;;;;;5012127;28;20041;-67
2021/09/04 06:07:27;;;;;;;9.82;3.08;;;;;;;;;;5011718;28;20079;-66
2021/09/04 06:09:53;;;;;;;7.75;2.92;;;;;;;;;;4993411;28;20086;-66
2021/09/04 06:12:19;;;;;;;7.32;3.22;;;;;;;;;;4994316;28;20110;-67
2021/09/04 06:14:45;;;;;;;7.80;3.15;;;;;;;;;;4993659;28;20049;-67
2021/09/04 06:17:12;;;;;;;9.38;2.85;;;;;;;;;;4994036;28;20396;-66
2021/09/04 06:19:38;;;;;;;9.73;3.17;;;;;;;;;;4993241;28;20100;-66
2021/09/04 06:22:04;;;;;;;9.75;3.22;;;;;;;;;;5011276;28;20133;-66
2021/09/04 06:24:30;;;;;;;10.35;2.60;;;;;;;;;;4993631;28;20053;-66
2021/09/04 06:26:56;;;;;;;7.85;3.40;;;;;;;;;;5011500;28;20064;-66
2021/09/04 06:29:24;;;;;;;8.80;2.88;;;;;;;;;;4974040;28;20046;-66
2021/09/04 06:31:51;;;;;;;10.10;2.97;;;;;;;;;;5011668;28;20045;-66
2021/09/04 06:34:17;;;;;;;5.78;2.92;;;;;;;;;;4993580;28;20073;-66
2021/09/04 06:36:43;;;;;;;10.98;3.08;;;;;;;;;;5010824;28;20445;-66
2021/09/04 06:39:09;;;;;;;8.45;2.80;;;;;;;;;;4993566;28;20093;-66
2021/09/04 06:41:35;;;;;;;6.72;2.88;;;;;;;;;;5010495;28;20034;-66
2021/09/04 06:44:02;;;;;;;6.72;2.65;;;;;;;;;;5010529;28;20042;-66
2021/09/04 06:46:32;;;;;;;8.35;3.55;;;;;;;;;;4993871;28;20194;-66
2021/09/04 06:48:59;;;;;;;13.02;3.15;;;;;;;;;;5010667;28;20125;-66
2021/09/04 06:51:26;;;;;;;7.28;2.67;;;;;;;;;;4992619;28;20099;-66
2021/09/04 06:53:52;;;;;;;8.80;2.83;;;;;;;;;;4993191;28;20049;-66
2021/09/04 06:56:18;;;;;;;6.80;2.85;;;;;;;;;;5010951;28;20377;-66
2021/09/04 06:58:45;;;;;;;8.80;3.00;;;;;;;;;;5010576;28;20038;-66
2021/09/04 07:01:11;;;;;;;7.75;3.28;;;;;;;;;;4976995;28;20409;-66
2021/09/04 07:03:37;;;;;;;9.43;2.65;;;;;;;;;;4993080;28;20046;-66
2021/09/04 07:06:04;;;;;;;9.50;2.22;;;;;;;;;;4992825;28;20143;-66
2021/09/04 07:08:30;;;;;;;13.98;2.67;;;;;;;;;;5011026;28;20045;-66
2021/09/04 07:10:56;;;;;;;7.32;2.55;;;;;;;;;;5009511;28;20417;-66
2021/09/04 07:13:22;;;;;;;7.43;2.38;;;;;;;;;;4993426;28;20046;-67
2021/09/04 07:15:49;;;;;;;7.22;2.45;;;;;;;;;;4992652;28;20060;-67
2021/09/04 07:18:15;;;;;;;7.97;3.03;;;;;;;;;;5010414;28;20046;-66
2021/09/04 07:20:41;;;;;;;8.65;2.63;;;;;;;;;;5010723;28;20054;-66
2021/09/04 07:23:07;;;;;;;7.20;2.60;;;;;;;;;;4992598;28;20125;-66
2021/09/04 07:25:34;;;;;;;12.18;3.10;;;;;;;;;;5010262;28;20053;-66
2021/09/04 07:28:00;;;;;;;7.18;2.42;;;;;;;;;;4993095;28;20037;-66
2021/09/04 07:30:26;;;;;;;6.45;2.25;;;;;;;;;;5010629;28;20095;-66
2021/09/04 07:32:52;;;;;;;13.43;2.88;;;;;;;;;;5009658;28;20482;-66
2021/09/04 07:35:18;;;;;;;10.25;2.75;;;;;;;;;;4993273;28;20050;-66
2021/09/04 07:37:44;;;;;;;8.10;2.58;;;;;;;;;;4992865;28;20112;-66
2021/09/04 07:40:11;;;;;;;5.80;2.17;;;;;;;;;;4992203;28;20046;-66
2021/09/04 07:42:37;;;;;;;10.27;2.67;;;;;;;;;;4992349;28;20148;-66
2021/09/04 07:45:03;;;;;;;6.43;2.50;;;;;;;;;;4993054;28;20050;-66
2021/09/04 07:47:29;;;;;;;10.02;3.28;;;;;;;;;;4996502;28;20167;-66
2021/09/04 07:49:56;;;;;;;7.70;2.50;;;;;;;;;;4992804;28;20055;-67
2021/09/04 07:52:22;;;;;;;6.65;2.60;;;;;;;;;;4992156;28;20703;-66
2021/09/04 07:54:48;;;;;;;5.80;2.65;;;;;;;;;;4992526;28;20374;-66
2021/09/04 07:57:14;;;;;;;8.43;2.63;;;;;;;;;;5010651;28;20053;-66
2021/09/04 07:59:40;;;;;;;7.68;2.50;;;;;;;;;;4992500;28;20077;-66
2021/09/04 08:02:06;;;;;;;5.63;2.70;;;;;;;;;;4991691;28;20054;-66
2021/09/04 08:04:33;;;;;;;9.98;2.90;;;;;;;;;;4992862;28;20030;-66
2021/09/04 08:06:59;;;;;;;5.18;1.98;;;;;;;;;;4992561;28;20413;-67
2021/09/04 08:09:25;;;;;;;8.02;3.17;;;;;;;;;;4991924;28;20099;-66
2021/09/04 08:11:51;;;;;;;4.97;2.05;;;;;;;;;;5010277;28;20485;-66
2021/09/04 08:14:17;;;;;;;8.95;2.55;;;;;;;;;;4991630;28;20113;-66
2021/09/04 08:16:44;;;;;;;9.48;2.10;;;;;;;;;;5010471;28;20427;-67
2021/09/04 08:19:10;;;;;;;11.07;2.08;;;;;;;;;;5009885;28;20096;-66
2021/09/04 08:21:36;;;;;;;8.05;2.47;;;;;;;;;;5010005;28;20444;-66
2021/09/04 08:24:02;;;;;;;7.80;2.40;;;;;;;;;;5013311;28;20055;-66
2021/09/04 08:26:28;;;;;;;7.13;2.17;;;;;;;;;;5013412;28;20041;-66
2021/09/04 08:28:55;;;;;;;6.20;2.58;;;;;;;;;;5013435;28;20045;-66
2021/09/04 08:31:22;;;;;;;9.73;2.30;;;;;;;;;;4996168;28;20405;-67
2021/09/04 08:33:48;;;;;;;4.47;2.10;;;;;;;;;;5013029;28;20052;-66
2021/09/04 08:36:14;;;;;;;9.80;2.33;;;;;;;;;;5012824;28;20050;-67
2021/09/04 08:38:40;;;;;;;8.70;2.63;;;;;;;;;;4995841;28;20064;-66
2021/09/04 08:41:06;;;;;;;8.73;2.13;;;;;;;;;;4995854;28;20140;-66
2021/09/04 08:43:33;;;;;;;8.15;2.30;;;;;;;;;;5012465;28;20038;-67
2021/09/04 08:46:00;;;;;;;7.10;2.42;;;;;;;;;;5013583;28;20053;-67
2021/09/04 08:48:26;;;;;;;4.47;2.00;;;;;;;;;;5012848;28;20058;-67
2021/09/04 08:50:53;;;;;;;6.25;1.90;;;;;;;;;;4991941;28;20046;-67
2021/09/04 08:53:20;;;;;;;8.45;2.53;;;;;;;;;;5005872;28;20054;-67
2021/09/04 08:55:47;;;;;;;7.13;2.35;;;;;;;;;;4994697;28;20098;-67
2021/09/04 08:58:14;;;;;;;4.75;2.30;;;;;;;;;;5012788;28;20092;-67
2021/09/04 09:00:41;;;;;;;8.20;2.47;;;;;;;;;;5012931;28;20050;-67
2021/09/04 09:03:19;;;;;;;8.75;2.20;;;;;;;;;;4995541;28;20053;-67
2021/09/04 09:05:45;;;;;;;7.47;2.42;;;;;;;;;;4994524;28;20050;-67
2021/09/04 09:08:18;;;;;;;7.18;2.50;;;;;;;;;;5012763;28;20461;-67
2021/09/04 09:10:45;;;;;;;7.18;2.60;;;;;;;;;;5012396;28;20350;-67
2021/09/04 09:13:15;;;;;;;7.15;2.58;;;;;;;;;;4995484;28;20046;-67
2021/09/04 09:15:42;;;;;;;6.93;2.42;;;;;;;;;;4994638;28;20052;-67
2021/09/04 09:18:10;;;;;;;7.43;2.45;;;;;;;;;;4994506;28;20050;-67
2021/09/04 09:20:37;;;;;;;9.65;2.78;;;;;;;;;;5012945;28;20108;-67
2021/09/04 09:23:15;;;;;;;5.97;2.45;;;;;;;;;;5012517;28;20034;-67
2021/09/04 09:25:42;;;;;;;7.38;2.90;;;;;;;;;;5007326;28;20070;-67
2021/09/04 09:28:12;;;;;;;7.45;2.72;;;;;;;;;;4993748;28;20042;-67
2021/09/04 09:30:40;;;;;;;7.22;3.45;;;;;;;;;;4994680;28;20438;-67
2021/09/04 09:33:08;;;;;;;10.10;3.30;;;;;;;;;;4990454;28;20161;-67
2021/09/04 09:35:35;;;;;;;8.55;2.95;;;;;;;;;;4984035;28;20050;-67
2021/09/04 09:38:02;;;;;;;9.60;2.67;;;;;;;;;;5012231;28;20465;-67
2021/09/04 09:40:29;;;;;;;8.45;3.03;;;;;;;;;;4994202;28;20037;-67
2021/09/04 09:42:55;;;;;;;9.35;3.03;;;;;;;;;;4978232;28;20046;-67
2021/09/04 09:45:38;;;;;;;8.32;3.38;;;;;;;;;;5012146;28;20436;-67
2021/09/04 09:48:04;;;;;;;11.13;3.78;;;;;;;;;;4994353;28;20433;-67
2021/09/04 09:50:31;;;;;;;9.98;3.22;;;;;;;;;;4993871;28;20089;-67
2021/09/04 09:52:57;;;;;;;6.60;2.95;;;;;;;;;;4990910;28;20057;-67
2021/09/04 09:55:24;;;;;;;10.23;3.15;;;;;;;;;;5007270;28;20048;-67
2021/09/04 09:57:51;;;;;;;7.43;3.80;;;;;;;;;;5011236;28;20054;-67
2021/09/04 10:00:17;;;;;;;8.57;3.58;;;;;;;;;;5011528;28;20072;-67
2021/09/04 10:02:45;;;;;;;6.43;3.20;;;;;;;;;;5012063;28;20442;-67
2021/09/04 10:05:12;;;;;;;9.40;3.42;;;;;;;;;;4994291;28;20120;-67
2021/09/04 10:07:39;;;;;;;8.55;3.70;;;;;;;;;;5010882;28;20109;-67
2021/09/04 10:10:05;;;;;;;16.02;4.45;;;;;;;;;;4994372;28;20129;-67
2021/09/04 10:12:32;;;;;;;13.18;4.78;;;;;;;;;;5011392;28;20517;-67
2021/09/04 10:14:58;;;;;;;11.35;4.25;;;;;;;;;;4993712;28;20335;-67
2021/09/04 10:17:24;;;;;;;10.85;5.05;;;;;;;;;;4993766;28;20081;-67
2021/09/04 10:19:51;;;;;;;10.35;4.20;;;;;;;;;;5011483;28;20050;-67
2021/09/04 10:22:17;;;;;;;9.98;4.80;;;;;;;;;;5011190;28;20042;-67
2021/09/04 10:24:43;;;;;;;9.05;4.47;;;;;;;;;;4993810;28;20070;-67
2021/09/04 10:27:12;;;;;;;11.60;4.53;;;;;;;;;;4993162;28;20117;-67
2021/09/04 10:29:41;;;;;;;8.38;4.07;;;;;;;;;;4993111;28;20065;-67
2021/09/04 10:32:08;;;;;;;9.68;4.50;;;;;;;;;;4993848;28;20046;-67
2021/09/04 10:34:38;;;;;;;9.43;4.70;;;;;;;;;;5011246;28;20184;-67
2021/09/04 10:37:15;;;;;;;8.52;4.70;;;;;;;;;;4992728;28;20045;-67
2021/09/04 10:39:47;;;;;;;10.20;4.50;;;;;;;;;;5010379;28;20054;-68
2021/09/04 10:42:14;;;;;;;9.40;4.63;;;;;;;;;;5010567;28;20117;-67
2021/09/04 10:44:41;;;;;;;11.85;5.05;;;;;;;;;;5011057;28;20437;-67
2021/09/04 10:47:10;;;;;;;13.10;4.80;;;;;;;;;;5010957;28;20057;-67
2021/09/04 10:49:43;;;;;;;10.30;5.13;;;;;;;;;;5009950;28;20049;-67
2021/09/04 10:52:10;;;;;;;11.95;4.22;;;;;;;;;;5011098;28;20045;-67
2021/09/04 10:54:54;;;;;;;10.10;5.07;;;;;;;;;;5011152;28;20385;-67
2021/09/04 10:57:21;;;;;;;9.25;4.63;;;;;;;;;;5010339;28;20477;-67
2021/09/04 11:00:06;;;;;;;8.45;4.70;;;;;;;;;;4992980;28;20054;-67
2021/09/04 11:02:41;;;;;;;9.80;4.70;;;;;;;;;;5010836;28;20102;-67
2021/09/04 11:05:25;;;;;;;9.90;4.65;;;;;;;;;;4992724;28;20069;-67
2021/09/04 11:08:09;;;;;;;9.23;5.05;;;;;;;;;;5010593;28;20052;-67
2021/09/04 11:10:35;;;;;;;;;;;;;;;;;;4992562;28;20057;-67
2021/09/04 11:13:05;;;;;;;9.10;4.45;;;;;;;;;;5010938;28;19921;-67
2021/09/04 11:15:32;;;;;;;9.98;4.97;;;;;;;;;;4992937;28;20124;-67
2021/09/04 11:17:58;;;;;;;8.65;4.55;;;;;;;;;;5010182;28;20034;-67
2021/09/04 11:20:25;;;;;;;10.52;4.63;;;;;;;;;;5010299;28;20097;-67
2021/09/04 11:22:51;;;;;;;9.02;4.65;;;;;;;;;;5010320;28;20548;-68
2021/09/04 11:25:20;;;;;;;12.13;4.85;;;;;;;;;;5010248;28;20080;-67
2021/09/04 11:27:47;;;;;;;9.27;4.90;;;;;;;;;;4993259;28;20053;-68
2021/09/04 11:30:17;;;;;;;10.00;4.90;;;;;;;;;;5009942;28;20053;-68
2021/09/04 11:32:43;;;;;;;12.43;5.13;;;;;;;;;;4992217;28;20042;-67
2021/09/04 11:35:10;;;;;;;9.85;5.40;;;;;;;;;;4992874;28;20058;-68
2021/09/04 11:37:38;;;;;;;11.10;5.40;;;;;;;;;;5010414;28;20132;-67
2021/09/04 11:40:04;;;;;;;11.27;6.00;;;;;;;;;;4991837;28;20050;-68
2021/09/04 11:42:32;;;;;;;9.15;5.63;;;;;;;;;;5010347;28;20042;-68
2021/09/04 11:45:00;;;;;;;9.32;5.60;;;;;;;;;;4993327;28;20078;-68
2021/09/04 11:47:27;;;;;;;12.05;5.50;;;;;;;;;;4992398;28;20050;-67
2021/09/04 11:49:55;;;;;;;7.65;4.90;;;;;;;;;;5010051;28;20065;-67
2021/09/04 11:52:23;;;;;;;10.48;5.43;;;;;;;;;;4991652;28;20132;-67
2021/09/04 11:54:50;;;;;;;12.15;5.38;;;;;;;;;;5010754;28;20431;-67
2021/09/04 11:57:22;;;;;;;12.45;5.50;;;;;;;;;;5011302;28;20461;-68
2021/09/04 12:00:11;;;;;;;14.52;4.97;;;;;;;;;;5013759;28;20050;-67
2021/09/04 12:02:41;;;;;;;10.65;5.15;;;;;;;;;;5013374;28;20584;-67
2021/09/04 12:05:09;;;;;;;13.50;4.40;;;;;;;;;;5014228;28;20140;-68
2021/09/04 12:07:35;;;;;;;9.98;5.10;;;;;;;;;;5013595;28;20466;-68
2021/09/04 12:10:03;;;;;;;8.43;4.60;;;;;;;;;;5014334;28;20038;-67
2021/09/04 12:12:30;;;;;;;12.45;4.78;;;;;;;;;;5013314;28;20580;-67
2021/09/04 12:14:56;;;;;;;10.43;5.13;;;;;;;;;;4995566;28;20489;-67
2021/09/04 12:17:23;;;;;;;9.25;4.60;;;;;;;;;;5013696;28;20042;-67
2021/09/04 12:19:49;;;;;;;10.05;4.22;;;;;;;;;;5000288;28;20178;-67
2021/09/04 12:22:16;;;;;;;7.57;4.80;;;;;;;;;;5013018;28;20125;-68
2021/09/04 12:24:42;;;;;;;9.20;4.90;;;;;;;;;;5013511;28;20053;-68
2021/09/04 12:27:09;;;;;;;8.95;4.25;;;;;;;;;;5013858;28;20132;-67
2021/09/04 12:29:37;;;;;;;12.48;4.70;;;;;;;;;;5013001;28;20048;-68
2021/09/04 12:32:07;;;;;;;6.95;4.15;;;;;;;;;;4995413;28;20159;-67
2021/09/04 12:34:33;;;;;;;10.38;4.05;;;;;;;;;;5013049;28;20046;-68
2021/09/04 12:37:00;;;;;;;8.77;4.35;;;;;;;;;;4996009;28;20466;-67
2021/09/04 12:39:28;;;;;;;12.38;4.00;;;;;;;;;;5013311;28;20394;-68
2021/09/04 12:42:05;;;;;;;12.38;4.07;;;;;;;;;;5012665;28;20049;-67
2021/09/04 12:44:39;;;;;;;11.65;4.55;;;;;;;;;;5003434;28;20057;-68
2021/09/04 12:47:06;;;;;;;8.40;3.58;;;;;;;;;;4995339;28;20048;-68
2021/09/04 12:49:33;;;;;;;10.43;4.07;;;;;;;;;;5012742;28;20129;-68
2021/09/04 12:52:04;;;;;;;6.75;3.90;;;;;;;;;;4993344;28;20062;-67
2021/09/04 12:54:34;;;;;;;7.95;4.30;;;;;;;;;;4995136;28;20046;-67
2021/09/04 12:57:08;;;;;;;8.90;4.13;;;;;;;;;;4994784;28;20042;-67
2021/09/04 12:59:48;;;;;;;9.40;4.00;;;;;;;;;;4995285;28;20454;-68
2021/09/04 13:02:15;;;;;;;8.93;3.78;;;;;;;;;;5012958;28;20088;-67
2021/09/04 13:04:42;;;;;;;9.32;4.20;;;;;;;;;;4978096;28;20470;-67
2021/09/04 13:07:08;;;;;;;7.35;3.55;;;;;;;;;;5012727;28;20117;-67
2021/09/04 13:09:34;;;;;;;7.55;3.85;;;;;;;;;;5012060;28;20505;-67
2021/09/04 13:12:01;;;;;;;9.77;3.95;;;;;;;;;;5013167;28;20041;-67
2021/09/04 13:14:27;;;;;;;6.68;3.63;;;;;;;;;;4994437;28;20054;-68
2021/09/04 13:16:55;;;;;;;7.78;3.35;;;;;;;;;;4994747;28;20049;-67
2021/09/04 13:19:21;;;;;;;6.47;3.50;;;;;;;;;;5012535;28;20509;-67
2021/09/04 13:21:47;;;;;;;8.77;4.13;;;;;;;;;;5012499;28;20045;-67
2021/09/04 13:24:13;;;;;;;10.07;4.22;;;;;;;;;;5011666;28;20050;-67
2021/09/04 13:26:40;;;;;;;8.50;3.90;;;;;;;;;;5012872;28;20033;-67
2021/09/04 13:29:06;;;;;;;7.80;3.88;;;;;;;;;;5012569;28;20046;-67
2021/09/04 13:31:32;;;;;;;12.25;4.45;;;;;;;;;;4994439;28;20050;-67
2021/09/04 13:33:58;;;;;;;8.27;3.92;;;;;;;;;;5012045;28;20064;-67
2021/09/04 13:36:24;;;;;;;12.07;4.60;;;;;;;;;;4994665;28;20053;-67
2021/09/04 13:38:51;;;;;;;8.90;4.40;;;;;;;;;;4994108;28;20084;-67
2021/09/04 13:41:17;;;;;;;8.30;4.50;;;;;;;;;;4994809;28;20046;-67
2021/09/04 13:43:44;;;;;;;10.30;4.22;;;;;;;;;;5012119;28;20441;-67
2021/09/04 13:46:10;;;;;;;10.93;4.35;;;;;;;;;;5011373;28;20129;-67
2021/09/04 13:48:36;;;;;;;12.15;4.28;;;;;;;;;;4990853;28;20066;-67
2021/09/04 13:51:02;;;;;;;8.88;4.13;;;;;;;;;;4992762;28;20065;-67
2021/09/04 13:53:28;;;;;;;8.65;4.82;;;;;;;;;;4992236;28;20332;-67
2021/09/04 13:55:54;;;;;;;8.63;3.90;;;;;;;;;;4992071;28;20148;-67
2021/09/04 13:58:21;;;;;;;8.43;3.95;;;;;;;;;;4992670;28;20043;-67
2021/09/04 14:00:47;;;;;;;9.23;3.72;;;;;;;;;;4990689;28;20050;-67
2021/09/04 14:03:13;;;;;;;12.60;4.47;;;;;;;;;;4992362;28;20126;-67
2021/09/04 14:05:39;;;;;;;12.05;4.25;;;;;;;;;;4990142;28;20506;-67
2021/09/04 14:08:05;;;;;;;11.35;4.65;;;;;;;;;;4990829;28;20053;-67
2021/09/04 14:10:32;;;;;;;10.25;4.35;;;;;;;;;;4992278;28;20054;-67
2021/09/04 14:12:58;;;;;;;8.52;4.10;;;;;;;;;;4990428;28;20123;-67
2021/09/04 14:15:24;;;;;;;8.55;4.03;;;;;;;;;;4992071;28;20048;-67
2021/09/04 14:17:50;;;;;;;12.52;4.57;;;;;;;;;;4991817;28;20089;-67
2021/09/04 14:20:16;;;;;;;7.32;4.13;;;;;;;;;;4989343;28;20065;-67
2021/09/04 14:22:42;;;;;;;8.48;3.95;;;;;;;;;;4990867;28;20038;-67
2021/09/04 14:25:09;;;;;;;12.63;4.47;;;;;;;;;;4991969;28;20047;-67
2021/09/04 14:27:35;;;;;;;9.10;3.92;;;;;;;;;;4991301;28;20162;-67
2021/09/04 14:30:01;;;;;;;10.70;4.38;;;;;;;;;;4992118;28;20046;-66
2021/09/04 14:32:27;;;;;;;6.45;3.70;;;;;;;;;;4991784;28;20085;-66
2021/09/04 14:34:54;;;;;;;11.32;4.50;;;;;;;;;;4991206;28;20156;-67
2021/09/04 14:37:21;;;;;;;11.90;4.55;;;;;;;;;;4991664;28;20355;-67